Time;durP1;ratioP1;P1;durP2;ratioP2;P2;SDS_P1;SDS_P2;PMS_P1;PMS_P2;Temp;Humidity;BMP_temperature;BMP_pressure;BME280_temperature;BME280_humidity;BME280_pressure;Samples;Min_cycle;Max_cycle;Signal;HPM_P1;HPM_P2
2022/05/19 00:02:14;;;;;;;;;0.50;0.00;;;;;23.91;52.90;101786.84;5089221;28;9627;-71
2022/05/19 00:04:40;;;;;;;;;0.75;0.75;;;;;23.89;52.89;101783.31;5090033;28;9403;-71
2022/05/19 00:07:07;;;;;;;;;3.75;1.00;;;;;23.89;52.95;101775.31;5089459;28;8934;-71
2022/05/19 00:09:32;;;;;;;;;1.00;1.00;;;;;23.89;52.57;101783.31;5086746;28;9710;-71
2022/05/19 00:12:03;;;;;;;;;1.25;1.25;;;;;23.87;52.59;101774.47;5069202;28;9530;-71
2022/05/19 00:14:28;;;;;;;;;1.75;1.75;;;;;23.89;52.73;101772.63;5082588;28;8872;-71
2022/05/19 00:16:56;;;;;;;;;1.75;1.75;;;;;23.88;52.93;101770.91;5088803;28;9572;-71
2022/05/19 00:19:22;;;;;;;;;1.25;1.25;;;;;23.87;52.98;101772.69;5090193;28;8772;-71
2022/05/19 00:21:49;;;;;;;;;2.00;1.25;;;;;23.87;52.80;101774.47;5089579;28;9616;-71
2022/05/19 00:24:15;;;;;;;;;1.00;1.00;;;;;23.86;52.98;101788.72;5089350;28;9590;-71
2022/05/19 00:26:41;;;;;;;;;1.00;1.00;;;;;23.86;53.10;101789.59;5090249;28;9633;-71
2022/05/19 00:29:06;;;;;;;;;1.00;1.00;;;;;23.85;52.60;101776.28;5089813;28;9526;-71
2022/05/19 00:31:32;;;;;;;;;1.75;1.75;;;;;23.85;53.30;101768.25;5089465;28;8862;-71
2022/05/19 00:33:58;;;;;;;;;2.75;1.00;;;;;23.83;53.34;101776.31;5089931;28;8815;-71
2022/05/19 00:36:23;;;;;;;;;2.00;2.00;;;;;23.82;53.38;101768.34;5089802;28;11320;-71
2022/05/19 00:38:48;;;;;;;;;1.00;1.00;;;;;23.80;53.34;101763.03;5089311;28;8772;-71
2022/05/19 00:41:14;;;;;;;;;1.00;1.00;;;;;23.80;53.17;101757.72;5089974;28;8772;-71
2022/05/19 00:43:43;;;;;;;;;1.00;1.00;;;;;23.79;53.37;101758.59;5090147;28;8784;-71
2022/05/19 00:46:20;;;;;;;;;1.00;1.00;;;;;23.80;53.27;101755.03;5089269;28;9514;-71
2022/05/19 00:48:49;;;;;;;;;2.00;2.00;;;;;23.79;53.05;101739.94;5089651;28;9533;-71
2022/05/19 00:51:17;;;;;;;;;1.00;1.00;;;;;23.80;53.10;101735.50;5089429;28;9524;-72
2022/05/19 00:53:47;;;;;;;;;0.50;0.50;;;;;23.79;53.60;101739.06;5090038;28;9480;-71
2022/05/19 00:56:25;;;;;;;;;1.75;1.75;;;;;23.80;53.28;101733.72;5090306;28;9533;-71
2022/05/19 00:59:07;;;;;;;;;1.00;1.00;;;;;23.80;53.07;101731.03;5089017;28;9478;-71
2022/05/19 01:01:35;;;;;;;;;2.00;2.00;;;;;23.79;53.50;101721.28;5089701;28;9324;-71
2022/05/19 01:04:06;;;;;;;;;1.25;1.25;;;;;23.78;53.32;101727.50;5089822;28;9488;-71
2022/05/19 01:06:33;;;;;;;;;1.50;1.50;;;;;23.78;53.60;101723.94;5089208;28;9527;-71
2022/05/19 01:09:02;;;;;;;;;1.00;1.00;;;;;23.75;53.39;101716.03;5089434;28;9619;-71
2022/05/19 01:11:28;;;;;;;;;3.00;2.00;;;;;23.75;53.31;101711.56;5071789;28;9588;-71
2022/05/19 01:13:54;;;;;;;;;1.25;1.25;;;;;23.76;53.22;101710.66;5080427;28;9625;-71
2022/05/19 01:16:20;;;;;;;;;1.00;1.00;;;;;23.75;52.96;101706.22;5093552;28;8775;-71
2022/05/19 01:18:46;;;;;;;;;3.50;2.50;;;;;23.74;53.08;101712.47;5093369;28;9544;-71
2022/05/19 01:21:15;;;;;;;;;1.00;1.00;;;;;23.74;52.98;101699.13;5092924;28;8760;-71
2022/05/19 01:24:31;;;;;;;;;1.25;1.25;;;;;23.74;53.45;101690.25;5093453;28;8792;-71
2022/05/19 01:26:57;;;;;;;;;1.00;1.00;;;;;23.74;53.35;101695.59;5047332;28;9501;-71
2022/05/19 01:29:26;;;;;;;;;1.75;1.75;;;;;23.72;53.23;101682.31;5093706;28;9391;-71
2022/05/19 01:31:58;;;;;;;;;2.00;1.00;;;;;23.73;53.26;101677.84;5093169;28;8775;-71
2022/05/19 01:34:27;;;;;;;;;1.00;1.00;;;;;23.72;53.34;101679.63;5092537;28;10050;-71
2022/05/19 01:36:52;;;;;;;;;2.00;2.00;;;;;23.72;53.35;101692.09;5092932;28;9474;-71
2022/05/19 01:39:25;;;;;;;;;1.00;1.00;;;;;23.72;53.41;101687.63;5093237;28;9589;-71
2022/05/19 01:42:22;;;;;;;;;1.25;1.25;;;;;23.72;53.43;101684.09;5092301;28;8787;-71
2022/05/19 01:45:09;;;;;;;;;1.75;1.75;;;;;23.71;53.34;101683.19;5085051;28;9418;-73
2022/05/19 01:47:46;;;;;;;;;1.25;1.25;;;;;23.71;53.34;101667.19;5092460;28;9467;-72
2022/05/19 01:50:37;;;;;;;;;1.25;1.25;;;;;23.71;52.98;101658.31;5093133;28;9374;-70
2022/05/19 01:53:19;;;;;;;;;2.00;2.00;;;;;23.70;52.98;101670.75;5091892;28;9459;-70
2022/05/19 01:56:08;;;;;;;;;3.00;3.00;;;;;23.72;53.10;101679.63;5092084;28;9552;-70
2022/05/19 01:58:44;;;;;;;;;2.00;2.00;;;;;23.70;53.59;101668.09;5092837;28;9676;-70
2022/05/19 02:01:09;;;;;;;;;2.00;2.00;;;;;23.71;53.09;101664.53;5092985;28;9380;-71
2022/05/19 02:03:47;;;;;;;;;1.00;1.00;;;;;23.71;53.69;101659.19;5091779;28;9482;-71
2022/05/19 02:06:19;;;;;;;;;1.75;1.75;;;;;23.71;53.33;101647.66;5092368;28;8909;-71
2022/05/19 02:08:54;;;;;;;;;1.00;1.00;;;;;23.70;53.66;101651.22;5091600;28;9718;-71
2022/05/19 02:11:46;;;;;;;;;1.75;1.75;;;;;23.71;53.50;101642.31;5075020;28;9723;-72
2022/05/19 02:14:17;;;;;;;;;4.00;1.75;;;;;23.69;53.54;101641.47;5073677;28;10364;-70
2022/05/19 02:16:44;;;;;;;;;2.75;1.75;;;;;23.71;52.91;101658.31;5091859;28;9701;-71
2022/05/19 02:19:13;;;;;;;;;2.00;2.00;;;;;23.70;53.11;101672.53;5092289;28;9536;-71
2022/05/19 02:21:39;;;;;;;;;1.00;1.00;;;;;23.71;53.03;101699.19;5092276;28;9535;-71
2022/05/19 02:24:08;;;;;;;;;2.00;2.00;;;;;23.71;53.11;101711.66;5090379;28;9499;-71
2022/05/19 02:26:38;;;;;;;;;1.75;1.75;;;;;23.70;53.31;101721.44;5091685;28;9355;-71
2022/05/19 02:29:09;;;;;;;;;2.00;2.00;;;;;23.70;53.56;101748.09;5091550;28;9674;-70
2022/05/19 02:31:35;;;;;;;;;2.75;2.75;;;;;23.69;53.48;101741.03;5090883;28;9624;-71
2022/05/19 02:34:00;;;;;;;;;2.00;2.00;;;;;23.70;53.35;101723.22;5091593;28;9616;-71
2022/05/19 02:36:26;;;;;;;;;1.00;1.00;;;;;23.68;53.68;101723.25;5091706;28;9557;-70
2022/05/19 02:38:51;;;;;;;;;1.75;1.75;;;;;23.69;53.55;101730.38;5090559;28;8868;-71
2022/05/19 02:41:16;;;;;;;;;2.00;2.00;;;;;23.68;54.08;101763.25;5091957;28;8915;-70
2022/05/19 02:43:42;;;;;;;;;2.00;2.00;;;;;23.69;53.60;101750.81;5091229;28;9519;-71
2022/05/19 02:46:07;;;;;;;;;1.00;1.00;;;;;23.68;53.90;101768.59;5091237;28;8764;-71
2022/05/19 02:48:33;;;;;;;;;3.00;3.00;;;;;23.69;53.63;101767.69;5091561;28;8796;-71
2022/05/19 02:50:59;;;;;;;;;3.00;3.00;;;;;23.69;53.34;101761.47;5090784;28;8768;-72
2022/05/19 02:53:25;;;;;;;;;1.75;1.75;;;;;23.68;53.41;101765.03;5091407;28;9514;-72
2022/05/19 02:55:50;;;;;;;;;2.00;2.00;;;;;23.68;53.50;101765.03;5090944;28;9737;-72
2022/05/19 02:58:16;;;;;;;;;1.25;1.25;;;;;23.68;53.55;101759.72;5090839;28;8775;-72
2022/05/19 03:00:44;;;;;;;;;2.50;1.75;;;;;23.68;53.57;101754.38;5091207;28;8784;-71
2022/05/19 03:03:09;;;;;;;;;1.75;1.75;;;;;23.68;53.44;101754.38;5091157;28;8760;-72
2022/05/19 03:05:35;;;;;;;;;2.50;2.25;;;;;23.68;53.94;101757.03;5090657;28;9356;-72
2022/05/19 03:08:00;;;;;;;;;3.00;3.00;;;;;23.67;53.64;101760.59;5090749;28;8799;-71
2022/05/19 03:10:26;;;;;;;;;2.00;2.00;;;;;23.68;53.35;101783.72;5080914;28;8913;-72
2022/05/19 03:12:55;;;;;;;;;2.00;2.00;;;;;23.67;53.33;101749.94;5069317;28;8828;-72
2022/05/19 03:15:21;;;;;;;;;2.50;2.00;;;;;23.66;53.52;101740.22;5050853;28;8913;-73
2022/05/19 03:17:46;;;;;;;;;4.25;4.25;;;;;23.65;53.64;101739.31;5050500;28;9481;-73
2022/05/19 03:20:12;;;;;;;;;2.00;2.00;;;;;23.68;54.16;101733.03;5050089;28;8791;-74
2022/05/19 03:22:37;;;;;;;;;4.25;3.25;;;;;23.70;53.51;101736.53;5050511;28;8786;-73
2022/05/19 03:25:05;;;;;;;;;2.00;2.00;;;;;23.71;53.23;101724.97;5050283;28;9580;-73
2022/05/19 03:27:31;;;;;;;;;1.25;1.25;;;;;23.72;53.38;101698.31;5049989;28;8800;-73
2022/05/19 03:29:56;;;;;;;;;2.75;2.75;;;;;23.73;53.91;101693.84;5050328;28;9594;-74
2022/05/19 03:32:21;;;;;;;;;3.00;2.00;;;;;23.74;53.27;101709.81;5050428;28;8807;-74
2022/05/19 03:34:46;;;;;;;;;2.75;2.75;;;;;23.75;53.91;101705.34;5048536;28;8929;-73
2022/05/19 03:37:13;;;;;;;;;3.75;2.75;;;;;23.75;53.78;101702.69;5050190;28;8767;-74
2022/05/19 03:39:39;;;;;;;;;1.50;1.50;;;;;23.73;53.99;101710.72;5050542;28;8802;-74
2022/05/19 03:42:05;;;;;;;;;3.00;3.00;;;;;23.79;54.02;101723.06;5049203;28;9563;-74
2022/05/19 03:44:31;;;;;;;;;3.75;3.25;;;;;23.78;53.94;101731.94;5050223;28;8957;-74
2022/05/19 03:46:56;;;;;;;;;3.00;2.00;;;;;23.80;53.79;101812.84;5049743;28;9604;-73
2022/05/19 03:49:21;;;;;;;;;1.00;1.00;;;;;23.82;54.14;101915.03;5049406;28;8779;-73
2022/05/19 03:51:46;;;;;;;;;2.00;2.00;;;;;23.81;54.25;101899.91;5049942;28;8810;-74
2022/05/19 03:54:12;;;;;;;;;2.00;2.00;;;;;23.79;54.56;101886.63;5049133;28;8802;-73
2022/05/19 03:56:40;;;;;;;;;2.00;2.00;;;;;23.79;53.63;101886.63;5049879;28;8818;-73
2022/05/19 03:59:05;;;;;;;;;3.00;3.00;;;;;23.79;53.55;101888.41;5050011;28;8856;-73
2022/05/19 04:01:32;;;;;;;;;2.50;2.50;;;;;23.78;53.88;101895.53;5049501;28;9560;-73
2022/05/19 04:03:59;;;;;;;;;2.25;2.25;;;;;23.79;53.87;101885.75;5049898;28;8782;-71
2022/05/19 04:06:24;;;;;;;;;2.25;2.25;;;;;23.81;53.33;101875.91;5049740;28;9702;-73
2022/05/19 04:08:49;;;;;;;;;2.75;2.00;;;;;23.82;53.21;101873.22;5048985;28;9560;-73
2022/05/19 04:11:15;;;;;;;;;3.00;3.00;;;;;23.82;53.67;101864.34;5082784;28;8795;-73
2022/05/19 04:13:41;;;;;;;;;3.00;3.00;;;;;23.80;53.15;101829.72;5083202;28;8942;-73
2022/05/19 04:16:07;;;;;;;;;3.00;3.00;;;;;23.82;53.60;101832.34;5068644;28;9667;-74
2022/05/19 04:18:32;;;;;;;;;2.00;2.00;;;;;23.82;53.41;101821.66;5069252;28;8806;-73
2022/05/19 04:20:57;;;;;;;;;4.00;3.00;;;;;23.81;53.52;101826.13;5069475;28;8930;-73
2022/05/19 04:23:23;;;;;;;;;3.75;3.75;;;;;23.83;53.38;101819.00;5068568;28;8782;-73
2022/05/19 04:25:49;;;;;;;;;2.00;2.00;;;;;23.83;53.42;101807.44;5069347;28;9620;-74
2022/05/19 04:28:14;;;;;;;;;1.75;1.75;;;;;23.82;53.74;101821.66;5070117;28;8782;-74
2022/05/19 04:30:41;;;;;;;;;2.75;2.75;;;;;23.82;53.57;101811.88;5068737;28;8814;-74
2022/05/19 04:33:07;;;;;;;;;2.00;2.00;;;;;23.81;53.52;101820.78;5069378;28;8814;-74
2022/05/19 04:35:33;;;;;;;;;2.75;2.75;;;;;23.83;53.31;101843.00;5069680;28;9593;-74
2022/05/19 04:38:00;;;;;;;;;2.00;2.00;;;;;23.82;53.34;101813.66;5068481;28;8773;-75
2022/05/19 04:40:26;;;;;;;;;2.00;2.00;;;;;23.82;53.86;101817.22;5069879;28;8778;-75
2022/05/19 04:42:53;;;;;;;;;2.50;2.00;;;;;23.81;53.66;101815.47;5069744;28;9706;-74
2022/05/19 04:45:19;;;;;;;;;3.00;3.00;;;;;23.81;53.63;101806.56;5069560;28;9701;-74
2022/05/19 04:47:44;;;;;;;;;2.00;2.00;;;;;23.81;53.46;101806.56;5074224;28;9627;-74
2022/05/19 04:50:10;;;;;;;;;2.75;2.75;;;;;23.81;53.73;101803.91;5073418;28;9635;-74
2022/05/19 04:52:36;;;;;;;;;3.00;2.00;;;;;23.82;53.19;101797.66;5072653;28;8855;-74
2022/05/19 04:55:03;;;;;;;;;2.25;2.25;;;;;23.82;53.59;101805.66;5072982;28;8908;-74
2022/05/19 04:57:31;;;;;;;;;2.75;2.75;;;;;23.81;53.43;101812.78;5072397;28;8801;-73
2022/05/19 04:59:56;;;;;;;;;4.25;4.25;;;;;23.83;56.03;101819.00;5072782;28;9780;-73
2022/05/19 05:02:28;;;;;;;;;4.00;3.50;;;;;23.88;58.61;101817.09;5072583;28;9681;-73
2022/05/19 05:04:53;;;;;;;;;4.00;3.50;;;;;23.94;57.25;101808.13;5071980;28;8789;-72
2022/05/19 05:07:18;;;;;;;;;4.00;3.25;;;;;24.02;57.78;101803.53;5072917;28;9773;-73
2022/05/19 05:09:44;;;;;;;;;4.25;4.25;;;;;24.09;59.64;101791.84;5076644;28;8795;-73
2022/05/19 05:12:09;;;;;;;;;3.25;3.25;;;;;24.13;59.82;101796.19;5092229;28;8794;-73
2022/05/19 05:14:35;;;;;;;;;4.50;3.50;;;;;24.18;60.78;101785.47;5078973;28;8813;-73
2022/05/19 05:17:00;;;;;;;;;6.50;5.75;;;;;24.17;61.45;101773.03;5072652;28;8924;-73
2022/05/19 05:19:26;;;;;;;;;5.75;5.00;;;;;24.16;61.36;101760.59;5071862;28;8843;-72
2022/05/19 05:21:56;;;;;;;;;4.00;4.00;;;;;24.15;63.18;101754.38;5072420;28;8797;-74
2022/05/19 05:24:21;;;;;;;;;4.25;4.25;;;;;24.19;63.63;101745.41;5072743;28;8797;-73
2022/05/19 05:26:47;;;;;;;;;3.75;3.75;;;;;24.19;62.28;101739.19;5071632;28;9764;-73
2022/05/19 05:29:13;;;;;;;;;5.25;5.00;;;;;24.16;63.81;101732.13;5072862;28;8777;-72
2022/05/19 05:31:38;;;;;;;;;6.75;4.25;;;;;24.12;62.94;101726.84;5072541;28;8900;-73
2022/05/19 05:34:03;;;;;;;;;8.25;7.00;;;;;24.12;62.86;101713.50;5071287;28;8805;-72
2022/05/19 05:36:29;;;;;;;;;5.25;5.25;;;;;24.11;63.22;101714.44;5072309;28;8792;-74
2022/05/19 05:38:54;;;;;;;;;6.75;5.00;;;;;24.11;63.40;101699.28;5072170;28;8956;-75
2022/05/19 05:41:19;;;;;;;;;7.00;7.00;;;;;24.13;63.25;101701.94;5071461;28;8793;-75
2022/05/19 05:43:44;;;;;;;;;7.50;6.50;;;;;24.14;62.99;101696.59;5071806;28;8786;-74
2022/05/19 05:46:14;;;;;;;;;7.00;6.00;;;;;24.12;63.04;101697.50;5072304;28;8883;-74
2022/05/19 05:48:40;;;;;;;;;7.25;6.00;;;;;24.12;62.63;101705.50;5071797;28;8866;-74
2022/05/19 05:51:08;;;;;;;;;6.00;6.00;;;;;24.10;62.78;101694.00;5071754;28;9692;-74
2022/05/19 05:53:35;;;;;;;;;6.00;5.50;;;;;24.11;62.76;101693.94;5072146;28;9818;-74
2022/05/19 05:56:02;;;;;;;;;9.00;7.00;;;;;24.11;62.53;101696.59;5071715;28;9874;-74
2022/05/19 05:58:28;;;;;;;;;5.75;5.75;;;;;24.09;62.62;101695.78;5071132;28;10719;-74
2022/05/19 06:00:53;;;;;;;;;7.75;6.00;;;;;24.08;62.51;101692.22;5070925;28;9779;-74
2022/05/19 06:03:19;;;;;;;;;6.25;6.00;;;;;24.09;62.24;101695.78;5072250;28;9462;-74
2022/05/19 06:05:44;;;;;;;;;7.25;6.25;;;;;24.10;61.84;101686.00;5071573;28;8846;-75
2022/05/19 06:08:09;;;;;;;;;6.50;5.25;;;;;24.08;62.11;101686.88;5071378;28;8766;-75
2022/05/19 06:10:35;;;;;;;;;7.00;7.00;;;;;24.08;61.74;101684.22;5083154;28;8796;-75
2022/05/19 06:13:01;;;;;;;;;5.25;3.25;;;;;24.06;61.91;101678.06;5090733;28;8822;-75
2022/05/19 06:15:26;;;;;;;;;7.25;6.75;;;;;24.06;61.61;101680.72;5071293;28;9778;-74
2022/05/19 06:17:52;;;;;;;;;8.00;5.75;;;;;24.06;61.29;101682.50;5071499;28;8770;-74
2022/05/19 06:20:18;;;;;;;;;4.25;3.75;;;;;24.08;61.46;101692.22;5071589;28;8766;-75
2022/05/19 06:22:44;;;;;;;;;6.00;6.00;;;;;24.08;60.92;101694.91;5070608;28;10401;-75
2022/05/19 06:25:12;;;;;;;;;9.25;7.25;;;;;;;;5071640;28;9777;-74
2022/05/19 06:27:37;;;;;;;;;6.50;6.50;;;;;24.08;60.80;101686.88;5071774;28;9871;-76
2022/05/19 06:30:04;;;;;;;;;5.50;5.50;;;;;24.07;60.47;101684.25;5070493;28;10676;-75
2022/05/19 06:32:29;;;;;;;;;7.50;6.25;;;;;24.07;60.58;101686.91;5071822;28;8790;-76
2022/05/19 06:34:55;;;;;;;;;6.75;6.75;;;;;;;;5070994;28;9895;-75
2022/05/19 06:37:20;;;;;;;;;6.25;6.25;;;;;;;;5070583;28;8944;-75
2022/05/19 06:39:45;;;;;;;;;6.50;6.50;;;;;24.07;60.19;101686.91;5071130;28;8877;-75
2022/05/19 06:42:14;;;;;;;;;8.75;7.50;;;;;24.09;60.22;101703.78;5071300;28;8798;-75
2022/05/19 06:44:41;;;;;;;;;8.50;6.50;;;;;24.10;59.65;101699.31;5070612;28;8785;-74
2022/05/19 06:47:13;;;;;;;;;7.00;7.00;;;;;24.08;60.14;101700.22;5070671;28;9762;-75
2022/05/19 06:49:42;;;;;;;;;5.00;5.00;;;;;24.08;59.83;101702.00;5072133;28;9800;-75
2022/05/19 06:52:20;;;;;;;;;5.00;5.00;;;;;24.10;59.79;101708.22;5071127;28;10633;-75
2022/05/19 06:54:53;;;;;;;;;6.00;4.25;;;;;24.10;59.75;101707.34;5071555;28;9835;-75
2022/05/19 06:57:20;;;;;;;;;5.50;4.75;;;;;24.09;59.42;101714.44;5071306;28;9687;-74
2022/05/19 06:59:46;;;;;;;;;4.00;4.00;;;;;24.10;59.21;101720.69;5071324;28;9899;-75
2022/05/19 07:02:13;;;;;;;;;6.00;6.00;;;;;24.09;59.12;101725.13;5071788;28;9671;-74
2022/05/19 07:04:39;;;;;;;;;5.50;5.25;;;;;24.09;59.22;101722.47;5071166;28;9792;-74
2022/05/19 07:07:04;;;;;;;;;5.50;5.00;;;;;24.09;59.41;101730.47;5071499;28;9553;-74
2022/05/19 07:09:34;;;;;;;;;4.00;4.00;;;;;24.07;58.98;101729.59;5073784;28;8797;-74
2022/05/19 07:12:00;;;;;;;;;7.25;4.50;;;;;24.10;58.95;101728.69;5090722;28;8799;-74
2022/05/19 07:14:26;;;;;;;;;5.50;5.00;;;;;24.08;59.14;101718.91;5078139;28;9695;-75
2022/05/19 07:16:51;;;;;;;;;5.00;5.00;;;;;24.06;58.91;101712.75;5070869;28;9661;-74
2022/05/19 07:22:04;;;;;;;;;5.00;5.00;;;;;24.06;59.26;101704.72;5070473;28;8820;-74
2022/05/19 07:24:29;;;;;;;;;6.25;5.00;;;;;24.06;58.56;101702.06;5070627;28;9711;-73
2022/05/19 07:26:55;;;;;;;;;3.75;3.75;;;;;24.07;59.06;101702.91;5069412;28;9622;-73
2022/05/19 07:29:21;;;;;;;;;7.00;6.00;;;;;;;;5070380;28;8790;-72
2022/05/19 07:31:48;;;;;;;;;5.00;5.00;;;;;24.08;58.70;101710.91;5069995;28;9730;-73
2022/05/19 07:34:16;;;;;;;;;4.25;4.25;;;;;24.08;58.63;101708.22;5069604;28;9914;-73
2022/05/19 07:36:42;;;;;;;;;6.50;5.50;;;;;24.10;58.63;101720.69;5070438;28;9792;-73
2022/05/19 07:39:08;;;;;;;;;4.25;4.00;;;;;24.11;58.36;101719.78;5069457;28;9642;-73
2022/05/19 07:41:34;;;;;;;;;5.75;5.00;;;;;24.10;58.47;101732.22;5070282;28;8885;-73
2022/05/19 07:43:59;;;;;;;;;4.00;3.75;;;;;24.10;58.66;101748.25;5070125;28;9641;-74
2022/05/19 07:46:26;;;;;;;;;6.00;4.50;;;;;24.10;57.86;101744.69;5069439;28;8805;-73
2022/05/19 07:48:56;;;;;;;;;5.25;5.25;;;;;24.10;58.26;101748.25;5070128;28;8778;-73
2022/05/19 07:51:23;;;;;;;;;4.00;4.00;;;;;24.10;57.58;101747.34;5069973;28;9962;-73
2022/05/19 07:53:49;;;;;;;;;3.25;3.25;;;;;24.10;57.66;101744.69;5069078;28;9685;-73
2022/05/19 07:56:15;;;;;;;;;5.50;5.50;;;;;24.10;58.09;101748.25;5070148;28;9701;-72
2022/05/19 07:58:46;;;;;;;;;4.00;4.00;;;;;24.10;58.01;101742.03;5070178;28;9703;-73
2022/05/19 08:01:12;;;;;;;;;5.00;4.50;;;;;24.11;57.59;101746.47;5069606;28;8802;-73
2022/05/19 08:03:37;;;;;;;;;3.75;3.75;;;;;24.10;58.12;101739.34;5070092;28;9606;-73
2022/05/19 08:06:07;;;;;;;;;4.25;3.50;;;;;24.10;58.07;101734.91;5069790;28;9735;-73
2022/05/19 08:08:32;;;;;;;;;4.75;4.75;;;;;24.10;58.08;101734.00;5069369;28;8880;-74
2022/05/19 08:11:00;;;;;;;;;4.50;4.50;;;;;24.10;57.66;101726.91;5084091;28;9828;-74
2022/05/19 08:16:10;;;;;;;;;4.50;4.00;;;;;24.11;57.65;101738.44;5069016;28;9664;-74
2022/05/19 08:18:35;;;;;;;;;6.00;4.00;;;;;24.12;57.41;101740.19;5069460;28;9722;-74
2022/05/19 08:21:05;;;;;;;;;5.00;3.00;;;;;24.13;57.75;101744.63;5068994;28;9490;-75
2022/05/19 08:23:36;;;;;;;;;4.00;4.00;;;;;24.13;57.81;101737.50;5069364;28;8809;-75
2022/05/19 08:26:03;;;;;;;;;4.50;4.50;;;;;24.12;57.79;101734.84;5069357;28;9677;-74
2022/05/19 08:28:29;;;;;;;;;5.25;5.00;;;;;24.13;58.24;101750.84;5069162;28;9748;-75
2022/05/19 08:31:09;;;;;;;;;7.00;5.00;;;;;24.15;57.98;101750.81;5069266;28;9802;-75
2022/05/19 08:33:36;;;;;;;;;4.50;4.50;;;;;24.14;58.41;101747.31;5069127;28;8852;-74
2022/05/19 08:36:02;;;;;;;;;3.50;3.50;;;;;24.14;58.28;101735.75;5068789;28;9714;-74
2022/05/19 08:38:27;;;;;;;;;5.00;5.00;;;;;24.13;57.81;101726.81;5069877;28;9682;-75
2022/05/19 08:40:57;;;;;;;;;4.00;4.00;;;;;24.14;58.16;101719.75;5069149;28;10402;-74
2022/05/19 08:43:26;;;;;;;;;5.00;5.00;;;;;24.13;58.07;101704.59;5069112;28;8808;-73
2022/05/19 08:46:01;;;;;;;;;6.25;5.75;;;;;24.12;58.52;101716.16;5068998;28;9630;-73
2022/05/19 08:48:28;;;;;;;;;4.00;4.00;;;;;24.14;58.07;101712.63;5069298;28;9699;-73
2022/05/19 08:51:01;;;;;;;;;4.00;4.00;;;;;24.16;57.88;101704.56;5068302;28;9706;-73
2022/05/19 08:53:31;;;;;;;;;4.50;4.50;;;;;24.15;58.02;101709.00;5069416;28;9894;-73
2022/05/19 08:56:02;;;;;;;;;4.25;4.25;;;;;24.16;57.36;101701.88;5068961;28;9691;-73
2022/05/19 08:58:36;;;;;;;;;6.25;6.25;;;;;24.18;58.05;101700.97;5068229;28;9606;-73
2022/05/19 09:01:23;;;;;;;;;4.00;4.00;;;;;24.19;57.48;101693.81;5068781;28;9699;-73
2022/05/19 09:04:04;;;;;;;;;3.25;3.25;;;;;24.20;57.42;101693.78;5068354;28;9936;-73
2022/05/19 09:10:00;;;;;;;;;3.25;3.00;;;;;24.20;57.94;101708.94;5071907;28;9624;-72
2022/05/19 09:12:27;;;;;;;;;5.25;5.25;;;;;24.23;57.90;101717.75;5088738;28;9553;-74
2022/05/19 09:14:53;;;;;;;;;4.25;4.25;;;;;24.27;57.69;101721.22;5072592;28;9606;-74
2022/05/19 09:17:28;;;;;;;;;4.50;4.50;;;;;24.28;58.01;101728.34;5069155;28;9620;-74
2022/05/19 09:20:00;;;;;;;;;4.75;4.75;;;;;24.29;57.80;101735.44;5068440;28;8829;-75
2022/05/19 09:22:29;;;;;;;;;4.00;4.00;;;;;24.28;57.66;101734.56;5069294;28;9848;-74
2022/05/19 09:24:55;;;;;;;;;3.75;3.75;;;;;24.28;58.09;101734.56;5068335;28;9702;-74
2022/05/19 09:27:22;;;;;;;;;5.75;5.75;;;;;24.30;57.81;101724.72;5069091;28;9693;-72
2022/05/19 09:29:50;;;;;;;;;5.00;5.00;;;;;24.31;57.79;101733.59;5068918;28;8777;-75
2022/05/19 09:32:26;;;;;;;;;4.00;4.00;;;;;24.31;57.46;101728.25;5068770;28;9768;-73
2022/05/19 09:35:02;;;;;;;;;4.50;4.00;;;;;24.33;57.63;101721.13;5072274;28;9600;-73
2022/05/19 09:37:37;;;;;;;;;3.50;3.50;;;;;24.35;57.44;101717.50;5072641;28;9636;-74
2022/05/19 09:40:21;;;;;;;;;5.50;4.75;;;;;24.36;57.09;101715.72;5071454;28;10548;-73
2022/05/19 09:43:08;;;;;;;;;4.50;4.50;;;;;24.36;57.13;101707.69;5072171;28;9806;-72
2022/05/19 09:45:41;;;;;;;;;4.25;4.00;;;;;24.37;57.27;101704.13;5072650;28;9604;-74
2022/05/19 09:48:08;;;;;;;;;5.25;5.00;;;;;24.37;57.23;101698.78;5071769;28;9724;-74
2022/05/19 09:50:43;;;;;;;;;4.00;4.00;;;;;24.38;57.34;101704.06;5072224;28;9690;-73
2022/05/19 09:53:14;;;;;;;;;3.00;3.00;;;;;24.40;57.34;101698.72;5071416;28;9747;-73
2022/05/19 09:55:40;;;;;;;;;4.25;4.25;;;;;24.42;57.72;101702.22;5072197;28;10424;-73
2022/05/19 09:58:09;;;;;;;;;3.25;3.25;;;;;24.42;57.18;101692.41;5071836;28;9686;-73
2022/05/19 10:00:44;;;;;;;;;4.00;4.00;;;;;24.43;57.38;101678.16;5071966;28;8884;-74
2022/05/19 10:03:29;;;;;;;;;4.25;4.25;;;;;24.45;57.29;101664.75;5072132;28;9695;-74
2022/05/19 10:05:57;;;;;;;;;5.00;5.00;;;;;24.45;57.30;101660.31;5072127;28;9672;-74
2022/05/19 10:08:39;;;;;;;;;3.00;3.00;;;;;24.47;57.17;101663.84;5071586;28;9682;-74
2022/05/19 10:11:27;;;;;;;;;6.00;5.00;;;;;24.47;57.21;101661.16;5086873;28;10635;-74
2022/05/19 10:14:03;;;;;;;;;3.25;3.00;;;;;24.49;57.29;101662.00;5082589;28;9649;-74
2022/05/19 10:17:10;;;;;;;;;4.75;4.75;;;;;24.49;57.06;101661.13;5071528;28;9695;-74
2022/05/19 10:19:48;;;;;;;;;3.75;3.75;;;;;24.51;57.23;101668.19;5070976;28;9626;-73
2022/05/19 10:22:39;;;;;;;;;4.50;4.00;;;;;24.51;57.25;101662.88;5070919;28;9612;-73
2022/05/19 10:25:17;;;;;;;;;4.00;4.00;;;;;24.53;57.44;101681.50;5071626;28;9618;-73
2022/05/19 10:31:03;;;;;;;;;4.25;4.25;;;;;24.53;57.38;101701.06;5071200;28;9661;-74
2022/05/19 10:33:29;;;;;;;;;0.25;0.25;;;;;24.53;57.35;101711.75;5071251;28;9839;-73
2022/05/19 10:36:17;;;;;;;;;3.75;3.75;;;;;24.53;56.81;101698.41;5070598;28;9751;-73
2022/05/19 10:38:43;;;;;;;;;4.50;4.50;;;;;24.54;57.17;101705.50;5071262;28;8790;-73
2022/05/19 10:41:27;;;;;;;;;3.50;3.00;;;;;24.53;56.94;101714.41;5071031;28;9548;-73
2022/05/19 10:44:19;;;;;;;;;3.00;3.00;;;;;24.53;56.74;101727.78;5069904;28;8908;-73
2022/05/19 10:47:02;;;;;;;;;5.25;5.25;;;;;24.54;56.81;101736.66;5070741;28;9690;-73
2022/05/19 10:49:30;;;;;;;;;4.00;3.50;;;;;24.53;56.71;101732.22;5070652;28;9744;-73
2022/05/19 10:52:01;;;;;;;;;7.50;4.00;;;;;24.53;57.19;101724.22;5070797;28;9715;-73
2022/05/19 10:54:40;;;;;;;;;4.50;4.50;;;;;24.53;56.88;101737.56;5071163;28;9586;-73
2022/05/19 10:57:27;;;;;;;;;4.00;4.00;;;;;24.53;57.05;101748.25;5069755;28;9624;-73
2022/05/19 10:59:59;;;;;;;;;4.50;4.50;;;;;24.54;57.09;101769.59;5070910;28;9613;-73
2022/05/19 11:03:08;;;;;;;;;3.00;3.00;;;;;24.54;56.72;101806.97;5070906;28;9764;-73
2022/05/19 11:06:18;;;;;;;;;5.00;4.00;;;;;24.56;56.92;101843.44;5070702;28;9766;-74
2022/05/19 11:09:06;;;;;;;;;4.00;4.00;;;;;24.57;56.71;101855.88;5008494;28;9677;-74
2022/05/19 11:11:56;;;;;;;;;5.25;5.00;;;;;24.59;57.06;101886.09;5026312;28;9794;-75
2022/05/19 11:15:02;;;;;;;;;3.00;3.00;;;;;24.59;56.93;101876.31;5074636;28;9761;-74
2022/05/19 11:18:02;;;;;;;;;3.00;3.00;;;;;24.57;56.72;101864.75;5090042;28;10227;-74
2022/05/19 11:20:38;;;;;;;;;5.00;5.00;;;;;24.55;56.96;101869.28;5091154;28;9714;-74
2022/05/19 11:23:18;;;;;;;;;3.00;3.00;;;;;24.56;57.09;101883.50;5090556;28;9677;-73
2022/05/19 11:26:24;;;;;;;;;4.50;4.50;;;;;24.56;57.37;101896.84;5089871;28;10634;-74
2022/05/19 11:29:20;;;;;;;;;4.50;4.00;;;;;24.56;57.40;101912.88;5090538;28;9651;-74
2022/05/19 11:31:55;;;;;;;;;3.00;3.00;;;;;24.54;57.37;101915.56;5089441;28;9604;-74
2022/05/19 11:34:28;;;;;;;;;3.00;3.00;;;;;24.52;57.10;101909.34;5090419;28;9657;-75
2022/05/19 11:36:54;;;;;;;;;4.50;4.50;;;;;24.49;57.05;101894.28;5090246;28;9711;-75
2022/05/19 11:39:37;;;;;;;;;4.25;4.00;;;;;24.47;57.34;101858.75;5089924;28;9842;-75
2022/05/19 11:42:28;;;;;;;;;4.00;4.00;;;;;24.47;57.16;101858.75;5090230;28;9480;-75
2022/05/19 11:44:54;;;;;;;;;4.25;4.25;;;;;24.47;57.13;101912.13;5090146;28;9777;-76
2022/05/19 11:55:59;;;;;;;;;5.50;5.50;;;;;24.43;57.43;101885.53;5089193;28;10349;-76
2022/05/19 11:58:28;;;;;;;;;5.00;5.00;;;;;24.41;57.04;101861.50;5090287;28;9843;-76
2022/05/19 12:01:04;;;;;;;;;7.00;6.00;;;;;24.40;57.27;101846.44;5089257;28;8760;-76
2022/05/19 12:03:55;;;;;;;;;6.00;6.00;;;;;24.39;57.00;101835.75;5090167;28;9684;-76
2022/05/19 12:06:29;;;;;;;;;2.00;2.00;;;;;24.39;57.14;101846.44;5089844;28;9704;-76
2022/05/19 12:09:20;;;;;;;;;5.25;5.00;;;;;24.39;57.17;101835.75;5089832;28;9532;-75
2022/05/19 12:11:52;;;;;;;;;3.50;3.50;;;;;24.37;57.36;101833.13;5049435;28;9538;-76